Time;durP1;ratioP1;P1;durP2;ratioP2;P2;SDS_P1;SDS_P2;PMS_P1;PMS_P2;Temp;Humidity;BMP_temperature;BMP_pressure;BME280_temperature;BME280_humidity;BME280_pressure;Samples;Min_cycle;Max_cycle;Signal;HPM_P1;HPM_P2
2024/02/02 00:02:55;;;;;;;;;;;;;;;5.82;100.00;97078.00;10434644;28;2223;-68
2024/02/02 00:08:00;;;;;;;;;;;;;;;5.77;100.00;97066.31;10436040;28;2152;-66
2024/02/02 00:13:06;;;;;;;;;;;;;;;5.63;100.00;97070.88;10437864;28;2839;-67
2024/02/02 00:18:15;;;;;;;;;;;;;;;5.46;100.00;97070.53;10441992;28;2124;-64
2024/02/02 00:23:23;;;;;;;;;;;;;;;5.45;100.00;97079.56;10434344;28;2119;-65
2024/02/02 00:28:29;;;;;;;;;;;;;;;5.33;100.00;97066.03;10432642;28;2188;-63
2024/02/02 00:33:41;;;;;;;;;;;;;;;5.25;100.00;97066.28;10432546;28;2131;-65
2024/02/02 00:38:47;;;;;;;;;;;;;;;5.18;100.00;97080.63;10432954;28;2459;-65
2024/02/02 00:43:58;;;;;;;;;;;;;;;5.20;100.00;97074.06;10416701;28;2114;-64
2024/02/02 00:49:02;;;;;;;;;;;;;;;5.26;100.00;97078.56;10429600;28;2423;-65
2024/02/02 00:54:07;;;;;;;;;;;;;;;5.23;100.00;97079.00;10416123;28;2044;-66
2024/02/02 00:59:14;;;;;;;;;;;;;;;5.19;100.00;97093.75;10431602;28;2728;-65
2024/02/02 01:04:18;;;;;;;;;;;;;;;5.24;100.00;97085.97;10412407;28;2172;-67
2024/02/02 01:09:22;;;;;;;;;;;;;;;4.96;100.00;97083.50;10414180;28;2134;-66
2024/02/02 01:14:34;;;;;;;;;;;;;;;4.99;100.00;97090.28;10428857;28;1985;-68
2024/02/02 01:19:41;;;;;;;;;;;;;;;5.08;100.00;97083.72;10435421;28;2279;-74
2024/02/02 01:24:51;;;;;;;;;;;;;;;5.11;100.00;97086.81;10412342;28;2257;-74
2024/02/02 01:29:56;;;;;;;;;;;;;;;5.03;100.00;97087.03;10427114;28;2232;-66
2024/02/02 01:35:00;;;;;;;;;;;;;;;4.97;100.00;97076.38;10427741;28;2473;-69
2024/02/02 01:40:03;;;;;;;;;;;;;;;4.94;100.00;97076.75;10427702;28;2001;-67
2024/02/02 01:45:15;;;;;;;;;;;;;;;4.98;100.00;97067.34;10428417;28;2080;-66
2024/02/02 01:50:20;;;;;;;;;;;;;;;5.03;100.00;97073.69;10412753;28;2123;-67
2024/02/02 01:55:25;;;;;;;;;;;;;;;4.95;100.00;97073.06;10429183;28;2060;-67
2024/02/02 02:00:29;;;;;;;;;;;;;;;4.81;100.00;97082.91;10424389;28;2280;-66
2024/02/02 02:05:35;;;;;;;;;;;;;;;4.80;100.00;97082.09;10427046;28;2220;-65
2024/02/02 02:10:39;;;;;;;;;;;;;;;4.72;100.00;97069.00;10427049;28;2074;-64
2024/02/02 02:15:45;;;;;;;;;;;;;;;4.60;100.00;97058.13;10432908;28;2076;-65
2024/02/02 02:20:50;;;;;;;;;;;;;;;4.55;100.00;97047.25;10412256;28;2361;-65
2024/02/02 02:25:59;;;;;;;;;;;;;;;4.50;100.00;97049.72;10431457;28;2227;-65
2024/02/02 02:31:14;;;;;;;;;;;;;;;4.42;100.00;97033.13;10430382;28;2168;-68
2024/02/02 02:36:26;;;;;;;;;;;;;;;4.34;100.00;97045.59;10431054;28;2105;-68
2024/02/02 02:41:31;;;;;;;;;;;;;;;4.21;100.00;97036.78;10430148;28;2068;-65
2024/02/02 02:46:37;;;;;;;;;;;;;;;4.24;100.00;97036.38;10428764;28;2117;-72
2024/02/02 02:51:44;;;;;;;;;;;;;;;4.30;100.00;97039.03;10411044;28;2104;-66
2024/02/02 02:57:05;;;;;;;;;;;;;;;4.36;100.00;97047.25;10429856;28;2041;-65
2024/02/02 03:02:08;;;;;;;;;;;;;;;4.34;100.00;97053.59;10424972;28;2158;-66
2024/02/02 03:07:11;;;;;;;;;;;;;;;4.40;100.00;97033.34;10411016;28;2139;-66
2024/02/02 03:12:17;;;;;;;;;;;;;;;4.24;100.00;97034.53;10412434;28;2103;-65
2024/02/02 03:17:21;;;;;;;;;;;;;;;4.03;100.00;97032.88;10413304;28;2264;-65
2024/02/02 03:22:26;;;;;;;;;;;;;;;4.00;100.00;97029.78;10425723;28;2092;-65
2024/02/02 03:27:31;;;;;;;;;;;;;;;3.94;100.00;97017.28;10431784;28;2178;-65
2024/02/02 03:32:36;;;;;;;;;;;;;;;3.93;100.00;97016.44;10435350;28;2120;-66
2024/02/02 03:37:41;;;;;;;;;;;;;;;3.95;100.00;97032.25;10432031;28;2103;-66
2024/02/02 03:42:45;;;;;;;;;;;;;;;3.97;100.00;97044.31;10413548;28;2214;-65
2024/02/02 03:48:02;;;;;;;;;;;;;;;4.00;100.00;97040.41;10430945;28;2272;-73
2024/02/02 03:53:12;;;;;;;;;;;;;;;4.05;100.00;97040.63;10431701;28;2080;-65
2024/02/02 03:58:16;;;;;;;;;;;;;;;4.09;100.00;97036.56;10436116;28;2104;-73
2024/02/02 04:03:20;;;;;;;;;;;;;;;4.12;100.00;97046.78;10431534;28;2067;-71
2024/02/02 04:08:31;;;;;;;;;;;;;;;4.18;100.00;97040.66;10430893;28;2079;-65
2024/02/02 04:13:37;;;;;;;;;;;;;;;4.25;100.00;97036.16;10432818;28;2060;-67
2024/02/02 04:18:43;;;;;;;;;;;;;;;4.28;100.00;97049.09;10437534;28;2143;-66
2024/02/02 04:23:56;;;;;;;;;;;;;;;4.37;100.00;97049.69;10430333;28;2172;-66
2024/02/02 04:29:00;;;;;;;;;;;;;;;4.43;100.00;97064.03;10416304;28;2181;-65
2024/02/02 04:34:04;;;;;;;;;;;;;;;4.46;100.00;97074.31;10422631;28;2228;-66
2024/02/02 04:39:13;;;;;;;;;;;;;;;4.44;100.00;97063.84;10434097;28;2464;-64
2024/02/02 04:44:25;;;;;;;;;;;;;;;4.51;100.00;97066.50;10437134;28;2101;-67
2024/02/02 04:49:39;;;;;;;;;;;;;;;4.55;100.00;97068.56;10432546;28;2024;-64
2024/02/02 04:54:48;;;;;;;;;;;;;;;4.57;100.00;97073.69;10431717;28;2235;-65
2024/02/02 04:59:54;;;;;;;;;;;;;;;4.63;100.00;97078.19;10432050;28;1997;-66
2024/02/02 05:05:01;;;;;;;;;;;;;;;4.60;100.00;97086.59;10417134;28;2088;-67
2024/02/02 05:10:05;;;;;;;;;;;;;;;4.62;100.00;97095.19;10431952;28;1995;-65
2024/02/02 05:15:18;;;;;;;;;;;;;;;4.66;100.00;97101.78;10431850;28;2135;-65
2024/02/02 05:20:22;;;;;;;;;;;;;;;4.70;100.00;97110.16;10433838;28;2239;-66
2024/02/02 05:25:31;;;;;;;;;;;;;;;4.67;100.00;97108.72;10430700;28;1948;-65
2024/02/02 05:30:37;;;;;;;;;;;;;;;4.70;100.00;97113.63;10431721;28;2099;-66
2024/02/02 05:41:00;;;;;;;;;;;;;;;4.76;100.00;97128.00;10410861;28;2341;-65
2024/02/02 05:46:05;;;;;;;;;;;;;;;4.76;100.00;97130.66;10430917;28;2076;-65
2024/02/02 05:51:13;;;;;;;;;;;;;;;4.78;100.00;97124.13;10429113;28;2088;-65
2024/02/02 05:56:19;;;;;;;;;;;;;;;4.70;100.00;97118.97;10411172;28;2126;-71
2024/02/02 06:01:26;;;;;;;;;;;;;;;4.73;100.00;97129.22;10424813;28;2127;-64
2024/02/02 06:06:39;;;;;;;;;;;;;;;4.78;100.00;97121.44;10420628;28;2091;-64
2024/02/02 06:11:45;;;;;;;;;;;;;;;4.78;100.00;97120.63;10430571;28;2096;-65
2024/02/02 06:16:49;;;;;;;;;;;;;;;4.73;100.00;97123.09;10410381;28;2153;-66
2024/02/02 06:21:55;;;;;;;;;;;;;;;4.81;100.00;97134.34;10434652;28;2080;-65
2024/02/02 06:27:22;;;;;;;;;;;;;;;4.73;100.00;97110.59;10428435;28;2266;-66
2024/02/02 06:32:31;;;;;;;;;;;;;;;4.73;100.00;97121.22;10428820;28;2096;-67
2024/02/02 06:37:38;;;;;;;;;;;;;;;4.76;100.00;97126.16;10425806;28;2188;-69
2024/02/02 06:42:45;;;;;;;;;;;;;;;4.84;100.00;97125.97;10427234;28;1923;-66
2024/02/02 06:47:50;;;;;;;;;;;;;;;4.82;100.00;97128.00;10428220;28;2130;-66
2024/02/02 06:52:54;;;;;;;;;;;;;;;4.87;100.00;97120.22;10411748;28;2034;-66
2024/02/02 06:58:06;;;;;;;;;;;;;;;4.97;100.00;97119.81;10412626;28;1917;-65
2024/02/02 07:03:11;;;;;;;;;;;;;;;5.00;100.00;97118.56;10429030;28;2131;-65
2024/02/02 07:08:15;;;;;;;;;;;;;;;5.12;100.00;97128.41;10422396;28;2115;-66
2024/02/02 07:13:26;;;;;;;;;;;;;;;5.08;100.00;97137.03;10434105;28;2128;-65
2024/02/02 07:18:35;;;;;;;;;;;;;;;5.12;100.00;97135.59;10439589;28;3114;-65
2024/02/02 07:23:45;;;;;;;;;;;;;;;5.17;100.00;97138.47;10438648;28;2041;-65
2024/02/02 07:28:54;;;;;;;;;;;;;;;5.18;100.00;97147.28;10435240;28;2157;-66
2024/02/02 07:34:08;;;;;;;;;;;;;;;5.17;100.00;97167.78;10437204;28;2143;-66
2024/02/02 07:39:14;;;;;;;;;;;;;;;5.28;100.00;97167.19;10434906;28;2029;-65
2024/02/02 07:44:21;;;;;;;;;;;;;;;5.48;100.00;97174.34;10434964;28;2166;-66
2024/02/02 07:49:25;;;;;;;;;;;;;;;5.55;100.00;97172.50;10428604;28;2154;-66
2024/02/02 07:54:32;;;;;;;;;;;;;;;5.56;100.00;97160.78;10422398;28;2228;-65
2024/02/02 07:59:37;;;;;;;;;;;;;;;5.71;100.00;97153.34;10424442;28;2323;-65
2024/02/02 08:04:56;;;;;;;;;;;;;;;5.70;100.00;97159.72;10425060;28;2027;-69
2024/02/02 08:10:30;;;;;;;;;;;;;;;5.78;100.00;97154.16;10412547;28;2056;-72
2024/02/02 08:15:37;;;;;;;;;;;;;;;5.84;100.00;97137.31;10422633;28;2039;-65
2024/02/02 08:20:43;;;;;;;;;;;;;;;5.95;100.00;97127.88;10425297;28;1986;-64
2024/02/02 08:25:48;;;;;;;;;;;;;;;6.01;100.00;97127.03;10422874;28;2017;-67
2024/02/02 08:30:53;;;;;;;;;;;;;;;6.13;100.00;97116.50;10423804;28;2322;-64
2024/02/02 08:36:08;;;;;;;;;;;;;;;6.22;100.00;97115.22;10425110;28;2539;-66
2024/02/02 08:41:13;;;;;;;;;;;;;;;6.37;100.00;97106.94;10420925;28;2080;-65
2024/02/02 08:46:25;;;;;;;;;;;;;;;6.47;100.00;97105.41;10424876;28;2139;-65
2024/02/02 08:51:38;;;;;;;;;;;;;;;6.42;100.00;97107.09;10424282;28;2115;-65
2024/02/02 09:02:02;;;;;;;;;;;;;;;6.59;100.00;97129.59;10426505;28;2112;-68
2024/02/02 09:07:07;;;;;;;;;;;;;;;6.65;100.00;97126.06;10424311;28;2060;-66
2024/02/02 09:12:17;;;;;;;;;;;;;;;6.91;100.00;97132.28;10427743;28;2028;-64
2024/02/02 09:17:20;;;;;;;;;;;;;;;7.16;100.00;97114.38;10430144;28;2175;-65
2024/02/02 09:22:27;;;;;;;;;;;;;;;7.19;100.00;97121.13;10424254;28;2128;-65
2024/02/02 09:27:33;;;;;;;;;;;;;;;7.12;100.00;97113.16;10409205;28;2270;-64
2024/02/02 09:32:36;;;;;;;;;;;;;;;7.08;100.00;97113.84;10391654;28;2127;-65
2024/02/02 09:37:42;;;;;;;;;;;;;;;7.05;100.00;97112.41;10425556;28;2128;-65
2024/02/02 09:42:59;;;;;;;;;;;;;;;7.01;100.00;97116.56;10425749;28;2169;-66
2024/02/02 09:48:05;;;;;;;;;;;;;;;6.99;100.00;97129.31;10437249;28;2048;-64
2024/02/02 09:53:09;;;;;;;;;;;;;;;7.05;100.00;97123.91;10436645;28;2077;-68
2024/02/02 09:58:19;;;;;;;;;;;;;;;7.10;100.00;97131.28;10437116;28;1959;-65
2024/02/02 10:03:26;;;;;;;;;;;;;;;7.36;100.00;97124.91;10423678;28;2100;-72
2024/02/02 10:08:35;;;;;;;;;;;;;;;7.59;100.00;97124.28;10421570;28;2332;-65
2024/02/02 10:13:42;;;;;;;;;;;;;;;7.46;100.00;97129.75;10439172;28;2076;-66
2024/02/02 10:18:47;;;;;;;;;;;;;;;7.47;100.00;97136.75;10441734;28;2003;-66
2024/02/02 10:23:59;;;;;;;;;;;;;;;7.24;100.00;97140.84;10436634;28;2157;-64
2024/02/02 10:29:19;;;;;;;;;;;;;;;7.07;100.00;97145.13;10436184;28;2062;-63
2024/02/02 10:34:22;;;;;;;;;;;;;;;6.98;100.00;97141.88;10436034;28;2216;-64
2024/02/02 10:39:30;;;;;;;;;;;;;;;6.96;100.00;97143.13;10430146;28;2117;-63
2024/02/02 10:44:34;;;;;;;;;;;;;;;6.84;100.00;97131.50;10434073;28;2275;-68
2024/02/02 10:49:39;;;;;;;;;;;;;;;6.67;100.00;97125.84;10437109;28;2277;-69
2024/02/02 10:54:55;;;;;;;;;;;;;;;6.92;100.00;97126.69;10433987;28;2103;-71
2024/02/02 11:00:09;;;;;;;;;;;;;;;6.82;100.00;97113.03;10438195;28;2189;-72
2024/02/02 11:05:12;;;;;;;;;;;;;;;6.75;100.00;97129.09;10421012;28;2331;-65
2024/02/02 11:10:21;;;;;;;;;;;;;;;6.70;100.00;97112.06;10432027;28;2136;-64
2024/02/02 11:15:33;;;;;;;;;;;;;;;6.73;100.00;97108.97;10433398;28;2107;-66
2024/02/02 11:20:45;;;;;;;;;;;;;;;6.59;100.00;97107.41;10437735;28;2097;-65
2024/02/02 11:25:53;;;;;;;;;;;;;;;6.59;100.00;97108.22;10434121;28;2032;-64
2024/02/02 11:31:01;;;;;;;;;;;;;;;6.50;100.00;97102.34;10427866;28;2148;-63
2024/02/02 11:36:06;;;;;;;;;;;;;;;6.62;100.00;97101.66;10408495;28;2056;-64
2024/02/02 11:41:10;;;;;;;;;;;;;;;6.62;100.00;97082.94;10425168;28;2083;-63
2024/02/02 11:46:15;;;;;;;;;;;;;;;6.76;100.00;97060.44;10429915;28;2232;-64
2024/02/02 11:51:23;;;;;;;;;;;;;;;7.06;100.00;97047.19;10436923;28;2164;-67
2024/02/02 11:56:29;;;;;;;;;;;;;;;7.08;100.00;97050.50;10422685;28;2083;-65
2024/02/02 12:01:34;;;;;;;;;;;;;;;7.37;100.00;97048.94;10430169;28;2493;-66
2024/02/02 12:06:40;;;;;;;;;;;;;;;7.43;100.00;97045.38;10427113;28;2700;-67
2024/02/02 12:11:50;;;;;;;;;;;;;;;7.57;100.00;97048.72;10428686;28;2086;-66
2024/02/02 12:16:57;;;;;;;;;;;;;;;7.58;100.00;97043.19;10429714;28;2193;-64
2024/02/02 12:22:09;;;;;;;;;;;;;;;7.99;100.00;97038.16;10415688;28;2100;-71
2024/02/02 12:27:16;;;;;;;;;;;;;;;7.83;100.00;97042.28;10429163;28;2205;-68
2024/02/02 12:32:22;;;;;;;;;;;;;;;7.89;100.00;97037.84;10430607;28;2151;-72
2024/02/02 12:37:25;;;;;;;;;;;;;;;8.05;100.00;97026.53;10411037;28;2264;-65
2024/02/02 12:42:37;;;;;;;;;;;;;;;8.22;100.00;97019.50;10429053;28;2123;-66
2024/02/02 12:47:46;;;;;;;;;;;;;;;8.13;100.00;97012.81;10425157;28;2061;-66
2024/02/02 12:52:54;;;;;;;;;;;;;;;8.08;100.00;97000.13;10425145;28;2120;-65
2024/02/02 12:58:01;;;;;;;;;;;;;;;8.46;100.00;96990.94;10424605;28;2069;-65
2024/02/02 13:03:07;;;;;;;;;;;;;;;8.60;100.00;96988.88;10425578;28;2856;-70
2024/02/02 13:08:16;;;;;;;;;;;;;;;8.73;100.00;96974.44;10424787;28;2076;-65
2024/02/02 13:13:19;;;;;;;;;;;;;;;8.75;100.00;96965.09;10426497;28;2084;-66
2024/02/02 13:18:35;;;;;;;;;;;;;;;8.71;100.00;96960.41;10420787;28;2048;-65
2024/02/02 13:23:44;;;;;;;;;;;;;;;8.68;100.00;96948.31;10426050;28;2105;-64
2024/02/02 13:28:49;;;;;;;;;;;;;;;8.70;100.00;96937.34;10412618;28;2324;-65
2024/02/02 13:33:56;;;;;;;;;;;;;;;8.61;100.00;96937.72;10408330;28;2063;-66
2024/02/02 13:39:02;;;;;;;;;;;;;;;8.64;100.00;96936.41;10408644;28;2199;-65
2024/02/02 13:44:10;;;;;;;;;;;;;;;8.61;100.00;96935.03;10420725;28;2397;-64
2024/02/02 13:49:28;;;;;;;;;;;;;;;8.51;100.00;96928.59;10421035;28;2554;-68
2024/02/02 13:54:35;;;;;;;;;;;;;;;8.22;100.00;96925.75;10421265;28;2210;-66
2024/02/02 13:59:41;;;;;;;;;;;;;;;8.22;100.00;96928.44;10424285;28;1950;-65
2024/02/02 14:04:47;;;;;;;;;;;;;;;8.18;100.00;96923.75;10424619;28;2179;-64
2024/02/02 14:09:58;;;;;;;;;;;;;;;8.29;100.00;96920.28;10414397;28;2060;-64
2024/02/02 14:15:04;;;;;;;;;;;;;;;8.23;100.00;96921.22;10423317;28;2032;-65
2024/02/02 14:20:09;;;;;;;;;;;;;;;8.20;100.00;96924.34;10423237;28;2236;-65
2024/02/02 14:25:29;;;;;;;;;;;;;;;8.20;100.00;96913.63;10425218;28;2163;-65
2024/02/02 14:30:39;;;;;;;;;;;;;;;8.20;100.00;96905.59;10418521;28;2693;-65
2024/02/02 14:35:49;;;;;;;;;;;;;;;8.12;100.00;96909.41;10423940;28;2195;-68
2024/02/02 14:40:54;;;;;;;;;;;;;;;8.13;100.00;96905.69;10407520;28;2129;-64
2024/02/02 14:46:00;;;;;;;;;;;;;;;8.24;100.00;96904.09;10422189;28;2088;-64
2024/02/02 14:51:04;;;;;;;;;;;;;;;8.21;100.00;96897.34;10409563;28;2103;-65
2024/02/02 14:56:11;;;;;;;;;;;;;;;8.10;100.00;96895.44;10420945;28;2017;-71
2024/02/02 15:01:15;;;;;;;;;;;;;;;8.16;100.00;96905.25;10420541;28;2149;-67
2024/02/02 15:06:19;;;;;;;;;;;;;;;8.18;100.00;96902.31;10409859;28;2215;-68
2024/02/02 15:11:25;;;;;;;;;;;;;;;8.09;100.00;96888.47;10425528;28;2125;-65
2024/02/02 15:16:36;;;;;;;;;;;;;;;8.04;100.00;96888.34;10406655;28;2084;-67
2024/02/02 15:22:02;;;;;;;;;;;;;;;7.99;100.00;96872.94;10426498;28;2061;-71
2024/02/02 15:27:05;;;;;;;;;;;;;;;8.03;100.00;96873.31;10434876;28;2173;-67
2024/02/02 15:32:09;;;;;;;;;;;;;;;7.98;100.00;96876.69;10430426;28;2182;-68
2024/02/02 15:37:14;;;;;;;;;;;;;;;7.93;100.00;96863.16;10414774;28;2572;-67
2024/02/02 15:42:26;;;;;;;;;;;;;;;7.99;100.00;96872.94;10414992;28;2152;-69
2024/02/02 15:47:47;;;;;;;;;;;;;;;7.95;100.00;96870.97;10431127;28;2076;-68
2024/02/02 15:52:59;;;;;;;;;;;;;;;7.99;100.00;96872.94;10429233;28;2079;-68
2024/02/02 15:58:06;;;;;;;;;;;;;;;8.04;100.00;96865.06;10397358;28;2111;-74
2024/02/02 16:03:15;;;;;;;;;;;;;;;7.97;100.00;96863.53;10426367;28;2056;-67
2024/02/02 16:08:18;;;;;;;;;;;;;;;7.92;100.00;96869.56;10430811;28;2104;-65
2024/02/02 16:13:30;;;;;;;;;;;;;;;7.86;100.00;96867.81;10412667;28;2108;-64
2024/02/02 16:18:38;;;;;;;;;;;;;;;7.93;100.00;96865.84;10427694;28;2387;-66
2024/02/02 16:23:48;;;;;;;;;;;;;;;7.97;100.00;96866.22;10433964;28;2111;-65
2024/02/02 16:28:56;;;;;;;;;;;;;;;8.00;100.00;96858.50;10432047;28;2242;-68
2024/02/02 16:34:00;;;;;;;;;;;;;;;8.02;100.00;96866.34;10425767;28;2055;-66
2024/02/02 16:39:11;;;;;;;;;;;;;;;8.08;100.00;96860.88;10414609;28;2044;-64
2024/02/02 16:44:15;;;;;;;;;;;;;;;8.08;100.00;96876.94;10417354;28;2413;-64
2024/02/02 16:49:21;;;;;;;;;;;;;;;8.18;100.00;96878.22;10425774;28;2128;-66
2024/02/02 16:54:26;;;;;;;;;;;;;;;8.17;100.00;96869.38;10426461;28;2115;-65
2024/02/02 16:59:29;;;;;;;;;;;;;;;8.18;100.00;96876.34;10430063;28;1958;-64
2024/02/02 17:04:36;;;;;;;;;;;;;;;8.22;100.00;96874.03;10429953;28;2014;-64
2024/02/02 17:09:43;;;;;;;;;;;;;;;8.20;100.00;96868.09;10408698;28;2072;-67
2024/02/02 17:14:50;;;;;;;;;;;;;;;8.27;100.00;96884.84;10429780;28;2429;-67
2024/02/02 17:19:53;;;;;;;;;;;;;;;8.25;100.00;96882.41;10429454;28;2158;-65
2024/02/02 17:24:57;;;;;;;;;;;;;;;8.27;100.00;96872.31;10437127;28;2413;-63
2024/02/02 17:30:20;;;;;;;;;;;;;;;8.26;100.00;96877.88;10431081;28;2385;-69
2024/02/02 17:35:27;;;;;;;;;;;;;;;8.03;100.00;96878.69;10430254;28;2012;-66
2024/02/02 17:40:45;;;;;;;;;;;;;;;7.83;100.00;96876.31;10427629;28;2099;-67
2024/02/02 17:45:51;;;;;;;;;;;;;;;7.76;100.00;96872.88;10430189;28;2234;-63
2024/02/02 17:51:17;;;;;;;;;;;;;;;7.66;100.00;96856.59;10427655;28;2022;-66
2024/02/02 17:56:22;;;;;;;;;;;;;;;7.61;100.00;96851.91;10413283;28;2378;-64
2024/02/02 18:01:26;;;;;;;;;;;;;;;7.53;100.00;96853.06;10430190;28;2250;-67
2024/02/02 18:06:32;;;;;;;;;;;;;;;7.54;100.00;96864.56;10424440;28;2128;-65
2024/02/02 18:11:45;;;;;;;;;;;;;;;7.45;100.00;96866.75;10426610;28;2128;-68
2024/02/02 18:16:54;;;;;;;;;;;;;;;7.37;100.00;96860.88;10416472;28;2053;-68
2024/02/02 18:21:58;;;;;;;;;;;;;;;7.35;100.00;96855.78;10426848;28;2227;-64
2024/02/02 18:27:02;;;;;;;;;;;;;;;7.48;100.00;96849.44;10427204;28;1986;-65
2024/02/02 18:32:08;;;;;;;;;;;;;;;7.63;100.00;96840.97;10422392;28;1994;-68
2024/02/02 18:37:12;;;;;;;;;;;;;;;7.77;100.00;96842.44;10427340;28;2381;-65
2024/02/02 18:42:15;;;;;;;;;;;;;;;7.92;100.00;96847.34;10429004;28;2347;-66
2024/02/02 18:47:19;;;;;;;;;;;;;;;7.98;100.00;96849.91;10413682;28;2135;-68
2024/02/02 18:52:26;;;;;;;;;;;;;;;7.96;100.00;96841.28;10432162;28;2175;-67
2024/02/02 18:57:31;;;;;;;;;;;;;;;7.91;100.00;96833.13;10436303;28;2108;-68
2024/02/02 19:02:37;;;;;;;;;;;;;;;7.93;100.00;96831.03;10434652;28;2123;-68
2024/02/02 19:07:48;;;;;;;;;;;;;;;7.88;100.00;96820.19;10435040;28;2301;-71
2024/02/02 19:12:52;;;;;;;;;;;;;;;7.80;100.00;96812.50;10450753;28;2015;-64
2024/02/02 19:18:00;;;;;;;;;;;;;;;7.84;100.00;96811.00;10464823;28;1404;-65
2024/02/02 19:23:08;;;;;;;;;;;;;;;7.63;100.00;96808.84;10465915;28;2312;-67
2024/02/02 19:28:17;;;;;;;;;;;;;;;7.58;100.00;96810.38;10455617;28;2377;-64
2024/02/02 19:33:22;;;;;;;;;;;;;;;7.51;100.00;96801.66;10454584;28;1991;-65
2024/02/02 19:38:29;;;;;;;;;;;;;;;7.47;100.00;96797.78;10460263;28;1757;-66
2024/02/02 19:43:44;;;;;;;;;;;;;;;7.43;100.00;96798.47;10458750;28;1787;-66
2024/02/02 19:48:49;;;;;;;;;;;;;;;7.41;100.00;96797.88;10448126;28;1904;-70
2024/02/02 19:53:53;;;;;;;;;;;;;;;7.34;99.54;96806.00;10468095;28;1910;-65
2024/02/02 19:59:03;;;;;;;;;;;;;;;7.44;92.30;96808.09;10460610;28;1475;-65
2024/02/02 20:04:07;;;;;;;;;;;;;;;7.34;94.58;96797.16;10449853;28;1461;-64
2024/02/02 20:09:14;;;;;;;;;;;;;;;7.34;93.36;96794.50;10453542;28;1462;-66
2024/02/02 20:14:29;;;;;;;;;;;;;;;7.27;93.10;96790.06;10455516;28;2364;-65
2024/02/02 20:19:34;;;;;;;;;;;;;;;7.17;97.91;96783.59;10438401;28;1550;-65
2024/02/02 20:24:45;;;;;;;;;;;;;;;7.10;97.27;96789.03;10455474;28;1815;-64
2024/02/02 20:29:50;;;;;;;;;;;;;;;7.09;96.85;96792.78;10461982;28;1987;-65
2024/02/02 20:34:57;;;;;;;;;;;;;;;7.21;90.48;96790.16;10457304;28;2047;-64
2024/02/02 20:40:03;;;;;;;;;;;;;;;7.14;94.78;96782.22;10452923;28;1818;-64
2024/02/02 20:45:10;;;;;;;;;;;;;;;7.13;93.89;96793.97;10457434;28;1522;-66
2024/02/02 20:50:17;;;;;;;;;;;;;;;6.98;97.81;96788.19;10458858;28;1514;-66
2024/02/02 20:55:28;;;;;;;;;;;;;;;6.97;97.42;96768.66;10456730;28;2435;-64
2024/02/02 21:00:34;;;;;;;;;;;;;;;6.94;98.13;96782.50;10438571;28;1628;-65
2024/02/02 21:05:44;;;;;;;;;;;;;;;6.87;100.00;96772.91;10443044;28;1605;-65
2024/02/02 21:10:49;;;;;;;;;;;;;;;6.84;100.00;96779.53;10443246;28;1535;-64
2024/02/02 21:16:00;;;;;;;;;;;;;;;6.94;99.41;96777.16;10459661;28;1918;-64
2024/02/02 21:21:07;;;;;;;;;;;;;;;6.89;99.03;96771.66;10460506;28;1610;-66
2024/02/02 21:26:10;;;;;;;;;;;;;;;6.99;97.47;96771.91;10461102;28;2335;-66
2024/02/02 21:31:14;;;;;;;;;;;;;;;7.03;98.36;96774.97;10463056;28;1467;-67
2024/02/02 21:36:20;;;;;;;;;;;;;;;7.01;99.61;96753.81;10452609;28;2323;-64
2024/02/02 21:41:24;;;;;;;;;;;;;;;6.98;96.93;96756.09;10449314;28;1935;-71
2024/02/02 21:46:37;;;;;;;;;;;;;;;6.94;99.91;96741.56;10416723;28;1983;-67
2024/02/02 21:51:54;;;;;;;;;;;;;;;6.97;98.11;96741.94;10427074;28;2137;-64
2024/02/02 21:56:57;;;;;;;;;;;;;;;6.92;98.81;96731.09;10431484;28;2196;-63
2024/02/02 22:02:01;;;;;;;;;;;;;;;6.96;96.33;96718.91;10416920;28;2299;-65
2024/02/02 22:07:05;;;;;;;;;;;;;;;7.06;96.50;96713.00;10427160;28;2106;-65
2024/02/02 22:12:12;;;;;;;;;;;;;;;7.20;90.92;96710.97;10413085;28;2187;-65
2024/02/02 22:17:16;;;;;;;;;;;;;;;7.16;87.93;96710.59;10426189;28;2138;-64
2024/02/02 22:22:22;;;;;;;;;;;;;;;7.12;88.41;96692.56;10426291;28;2357;-64
2024/02/02 22:27:25;;;;;;;;;;;;;;;7.13;86.22;96696.88;10426223;28;2290;-64
2024/02/02 22:32:28;;;;;;;;;;;;;;;7.02;88.04;96707.31;10428107;28;2076;-65
2024/02/02 22:37:43;;;;;;;;;;;;;;;7.12;82.85;96705.94;10424801;28;2230;-64
2024/02/02 22:42:49;;;;;;;;;;;;;;;7.16;80.86;96712.47;10429289;28;2239;-66
2024/02/02 22:47:54;;;;;;;;;;;;;;;7.15;80.61;96702.81;10428203;28;2181;-69
2024/02/02 22:52:58;;;;;;;;;;;;;;;7.17;76.66;96714.09;10428130;28;2107;-69
2024/02/02 22:58:05;;;;;;;;;;;;;;;7.29;72.50;96733.66;10430331;28;2096;-65
2024/02/02 23:03:11;;;;;;;;;;;;;;;7.21;73.38;96750.03;10426176;28;2147;-64
2024/02/02 23:08:14;;;;;;;;;;;;;;;7.15;73.02;96743.72;10410240;28;2681;-65
2024/02/02 23:13:21;;;;;;;;;;;;;;;7.14;71.19;96752.81;10427022;28;2048;-62
2024/02/02 23:18:26;;;;;;;;;;;;;;;7.11;69.70;96747.91;10413846;28;2038;-63
2024/02/02 23:23:29;;;;;;;;;;;;;;;6.98;73.83;96748.91;10426441;28;2005;-65
2024/02/02 23:28:40;;;;;;;;;;;;;;;7.02;71.36;96749.28;10424142;28;2242;-65
2024/02/02 23:33:48;;;;;;;;;;;;;;;6.94;71.38;96726.34;10430529;28;2162;-62
2024/02/02 23:38:52;;;;;;;;;;;;;;;6.96;71.02;96729.59;10427037;28;2223;-64
2024/02/02 23:43:56;;;;;;;;;;;;;;;6.96;69.20;96713.56;10437087;28;2111;-64
2024/02/02 23:49:04;;;;;;;;;;;;;;;6.95;68.01;96711.94;10414263;28;2115;-67
2024/02/02 23:54:07;;;;;;;;;;;;;;;6.92;67.42;96711.56;10437369;28;2482;-65
2024/02/02 23:59:11;;;;;;;;;;;;;;;6.93;63.72;96714.00;10434219;28;2597;-68
